Time;durP1;ratioP1;P1;durP2;ratioP2;P2;SDS_P1;SDS_P2;PMS_P1;PMS_P2;Temp;Humidity;BMP_temperature;BMP_pressure;BME280_temperature;BME280_humidity;BME280_pressure;Samples;Min_cycle;Max_cycle;Signal;HPM_P1;HPM_P2
2021/06/27 00:01:11;;;;;;;31.80;26.90;;;18.70;99.90;;;;;;4384210;32;20623;-61
2021/06/27 00:03:38;;;;;;;34.37;28.57;;;18.70;99.90;;;;;;4377648;32;20214;-62
2021/06/27 00:06:05;;;;;;;34.50;26.00;;;18.70;99.90;;;;;;4376617;32;20171;-61
2021/06/27 00:08:32;;;;;;;37.33;28.10;;;18.70;99.90;;;;;;4377175;32;20160;-61
2021/06/27 00:11:00;;;;;;;33.73;27.63;;;18.70;99.90;;;;;;4378787;32;20585;-61
2021/06/27 00:13:30;;;;;;;32.63;26.67;;;18.70;99.90;;;;;;4376569;32;20212;-60
2021/06/27 00:15:59;;;;;;;32.67;26.37;;;18.80;99.90;;;;;;4382278;32;20235;-61
2021/06/27 00:18:28;;;;;;;32.63;27.47;;;18.80;99.90;;;;;;4377568;32;20172;-60
2021/06/27 00:20:59;;;;;;;34.07;26.83;;;18.80;99.90;;;;;;4385884;32;20155;-60
2021/06/27 00:23:29;;;;;;;34.97;27.37;;;18.90;99.90;;;;;;4378295;32;20175;-61
2021/06/27 00:25:58;;;;;;;33.70;27.87;;;18.90;99.90;;;;;;4388041;32;20155;-60
2021/06/27 00:28:25;;;;;;;33.03;25.97;;;18.90;99.90;;;;;;4389521;32;20265;-60
2021/06/27 00:30:54;;;;;;;31.20;25.77;;;18.90;99.90;;;;;;4378427;32;20191;-60
2021/06/27 00:33:22;;;;;;;36.67;27.00;;;18.90;99.90;;;;;;4376587;32;20231;-60
2021/06/27 00:35:49;;;;;;;33.70;27.37;;;18.80;99.90;;;;;;4379399;32;20208;-60
2021/06/27 00:38:16;;;;;;;35.93;28.50;;;18.80;99.90;;;;;;4388951;32;20164;-60
2021/06/27 00:40:43;;;;;;;30.60;25.47;;;18.80;99.90;;;;;;4383821;32;20223;-60
2021/06/27 00:43:10;;;;;;;32.77;26.37;;;18.80;99.90;;;;;;4376458;32;20136;-60
2021/06/27 00:45:38;;;;;;;30.83;26.07;;;18.80;99.90;;;;;;4380926;32;20518;-62
2021/06/27 00:48:08;;;;;;;34.80;27.47;;;18.80;99.90;;;;;;4384813;32;20220;-60
2021/06/27 00:50:38;;;;;;;35.17;28.60;;;18.80;99.90;;;;;;4381381;32;20148;-61
2021/06/27 00:53:05;;;;;;;31.33;25.50;;;18.80;99.90;;;;;;4390426;32;20174;-61
2021/06/27 00:55:32;;;;;;;34.90;29.43;;;18.80;99.90;;;;;;4380698;32;20199;-61
2021/06/27 00:58:00;;;;;;;33.47;27.67;;;18.80;99.90;;;;;;4381791;32;20172;-61
2021/06/27 01:00:29;;;;;;;32.97;26.80;;;18.70;99.90;;;;;;4375545;32;20223;-61
2021/06/27 01:02:59;;;;;;;35.27;28.97;;;18.80;99.90;;;;;;4387903;32;20211;-61
2021/06/27 01:05:30;;;;;;;31.67;26.37;;;18.80;99.90;;;;;;4377831;32;20167;-60
2021/06/27 01:07:57;;;;;;;33.23;27.37;;;18.80;99.90;;;;;;4392210;32;20153;-59
2021/06/27 01:10:25;;;;;;;36.97;30.07;;;18.80;99.90;;;;;;4388277;32;20174;-62
2021/06/27 01:12:52;;;;;;;39.83;29.43;;;18.80;99.90;;;;;;4383620;32;20151;-60
2021/06/27 01:15:20;;;;;;;34.27;27.37;;;18.80;99.90;;;;;;4384492;32;20167;-60
2021/06/27 01:17:50;;;;;;;31.83;25.70;;;18.70;99.90;;;;;;4389411;32;20172;-60
2021/06/27 01:20:18;;;;;;;31.80;25.67;;;18.80;99.90;;;;;;4390876;32;20495;-61
2021/06/27 01:22:47;;;;;;;34.67;28.07;;;18.80;99.90;;;;;;4385834;32;20192;-61
2021/06/27 01:25:16;;;;;;;34.47;27.37;;;18.70;99.90;;;;;;4388308;32;20156;-60
2021/06/27 01:27:44;;;;;;;34.10;26.90;;;18.70;99.90;;;;;;4376996;32;20184;-60
2021/06/27 01:30:12;;;;;;;33.47;28.97;;;18.70;99.90;;;;;;4381887;32;20478;-59
2021/06/27 01:32:42;;;;;;;31.37;26.70;;;18.70;99.90;;;;;;4390059;32;20163;-61
2021/06/27 01:35:11;;;;;;;33.43;28.53;;;18.70;99.90;;;;;;4380978;32;20195;-60
2021/06/27 01:37:39;;;;;;;40.77;33.30;;;18.60;99.90;;;;;;4380287;32;20183;-60
2021/06/27 01:40:10;;;;;;;37.23;28.00;;;18.60;99.90;;;;;;4389666;32;20639;-59
2021/06/27 01:42:37;;;;;;;37.77;30.10;;;18.50;99.90;;;;;;4390204;32;20564;-59
2021/06/27 01:45:15;;;;;;;37.40;29.67;;;18.60;99.90;;;;;;4387447;32;20568;-59
2021/06/27 01:47:43;;;;;;;36.07;29.20;;;18.60;99.90;;;;;;4386959;32;20691;-59
2021/06/27 01:50:12;;;;;;;36.93;30.07;;;18.60;99.90;;;;;;4388128;32;20171;-59
2021/06/27 01:52:39;;;;;;;35.73;30.30;;;18.60;99.90;;;;;;4386348;32;20198;-59
2021/06/27 01:55:09;;;;;;;37.67;30.07;;;18.50;99.90;;;;;;4384830;32;20152;-59
2021/06/27 01:57:36;;;;;;;35.13;30.10;;;18.40;99.90;;;;;;4387488;32;20145;-59
2021/06/27 02:00:05;;;;;;;40.93;32.67;;;18.40;99.90;;;;;;4390735;32;20250;-59
2021/06/27 02:02:32;;;;;;;44.50;32.23;;;18.30;99.90;;;;;;4381034;32;20336;-58
2021/06/27 02:04:59;;;;;;;37.83;30.80;;;18.30;99.90;;;;;;4385348;32;20581;-61
2021/06/27 02:07:26;;;;;;;41.13;33.00;;;18.30;99.90;;;;;;4377521;32;20592;-60
2021/06/27 02:09:53;;;;;;;39.30;32.07;;;18.20;99.90;;;;;;4387070;32;20148;-61
2021/06/27 02:12:22;;;;;;;41.27;32.17;;;18.30;99.90;;;;;;4374907;32;20160;-60
2021/06/27 02:14:49;;;;;;;40.97;31.73;;;18.20;99.90;;;;;;4378897;32;20548;-61
2021/06/27 02:17:16;;;;;;;40.37;31.33;;;18.20;99.90;;;;;;4388295;32;20148;-61
2021/06/27 02:19:53;;;;;;;38.77;31.13;;;18.10;99.90;;;;;;4379327;32;20540;-60
2021/06/27 02:22:21;;;;;;;43.90;33.17;;;18.10;99.90;;;;;;4375566;32;20188;-61
2021/06/27 02:24:48;;;;;;;42.60;33.30;;;18.00;99.90;;;;;;4377011;32;20569;-61
2021/06/27 02:27:15;;;;;;;45.73;33.97;;;18.10;99.90;;;;;;4375010;32;20176;-61
2021/06/27 02:29:44;;;;;;;39.17;32.07;;;18.10;99.90;;;;;;4379079;32;20514;-62
2021/06/27 02:32:11;;;;;;;44.07;33.23;;;18.10;99.90;;;;;;4383604;32;20160;-59
2021/06/27 02:34:38;;;;;;;42.27;32.60;;;18.20;99.90;;;;;;4320503;32;2050181;-59
2021/06/27 02:37:05;;;;;;;43.33;32.03;;;18.30;99.90;;;;;;4383620;32;20179;-60
2021/06/27 02:39:32;;;;;;;44.00;33.87;;;18.20;99.90;;;;;;4377095;32;20157;-59
2021/06/27 02:41:59;;;;;;;47.23;35.83;;;18.20;99.90;;;;;;4374840;32;20167;-59
2021/06/27 02:44:29;;;;;;;44.03;33.97;;;18.20;99.90;;;;;;4377095;32;20195;-59
2021/06/27 02:46:57;;;;;;;45.20;35.17;;;18.20;99.90;;;;;;4379149;32;20160;-62
2021/06/27 02:49:24;;;;;;;49.73;36.13;;;18.30;99.90;;;;;;4387629;32;20599;-62
2021/06/27 02:51:51;;;;;;;49.20;36.00;;;18.30;99.90;;;;;;4393509;32;20558;-60
2021/06/27 02:54:18;;;;;;;43.00;33.93;;;18.30;99.90;;;;;;4387648;32;20178;-59
2021/06/27 02:56:45;;;;;;;46.63;35.53;;;18.30;99.90;;;;;;4384049;32;20460;-61
2021/06/27 02:59:11;;;;;;;49.33;36.00;;;18.40;99.90;;;;;;4377838;32;20547;-60
2021/06/27 03:01:38;;;;;;;46.17;36.63;;;18.40;99.90;;;;;;4384088;32;20164;-59
2021/06/27 03:04:06;;;;;;;45.73;35.43;;;18.40;99.90;;;;;;4392146;32;20223;-60
2021/06/27 03:06:33;;;;;;;49.10;36.00;;;18.30;99.90;;;;;;4387002;32;20248;-60
2021/06/27 03:09:00;;;;;;;50.20;36.67;;;18.30;99.90;;;;;;4377960;32;20171;-59
2021/06/27 03:11:27;;;;;;;49.67;37.30;;;18.30;99.90;;;;;;4378458;32;20179;-60
2021/06/27 03:13:56;;;;;;;49.47;36.67;;;18.30;99.90;;;;;;4385133;32;20216;-60
2021/06/27 03:16:23;;;;;;;47.40;35.87;;;18.30;99.90;;;;;;4384248;32;20211;-60
2021/06/27 03:18:53;;;;;;;46.67;35.90;;;18.40;99.90;;;;;;4371745;32;20231;-59
2021/06/27 03:21:29;;;;;;;52.23;38.37;;;18.40;99.90;;;;;;4384456;32;20169;-60
2021/06/27 03:23:55;;;;;;;48.17;36.83;;;18.30;99.90;;;;;;4378277;32;20991;-61
2021/06/27 03:26:40;;;;;;;50.23;37.03;;;18.30;99.90;;;;;;4382389;32;20207;-61
2021/06/27 03:29:08;;;;;;;56.13;39.03;;;18.20;99.90;;;;;;4382222;32;20156;-60
2021/06/27 03:31:35;;;;;;;53.20;39.03;;;18.10;99.90;;;;;;4384846;32;20202;-60
2021/06/27 03:34:02;;;;;;;53.40;38.23;;;18.00;99.90;;;;;;4383015;32;20187;-60
2021/06/27 03:36:30;;;;;;;47.50;36.57;;;18.00;99.90;;;;;;4376673;32;20165;-59
2021/06/27 03:39:04;;;;;;;53.83;39.70;;;18.00;99.90;;;;;;4380962;32;20176;-59
2021/06/27 03:41:35;;;;;;;54.27;40.07;;;17.90;99.90;;;;;;4376689;32;20153;-60
2021/06/27 03:44:02;;;;;;;54.67;40.57;;;17.90;99.90;;;;;;4376779;32;20149;-60
2021/06/27 03:46:29;;;;;;;53.40;40.10;;;17.90;99.90;;;;;;4376717;32;20465;-60
2021/06/27 03:48:56;;;;;;;53.07;38.93;;;17.80;99.90;;;;;;4388253;32;20219;-60
2021/06/27 03:51:23;;;;;;;56.80;40.47;;;17.80;99.90;;;;;;4391753;32;20623;-60
2021/06/27 03:53:51;;;;;;;53.07;38.83;;;17.80;99.90;;;;;;4389599;32;20179;-60
2021/06/27 03:56:18;;;;;;;50.63;38.20;;;17.80;99.90;;;;;;4391068;32;20160;-61
2021/06/27 03:58:45;;;;;;;52.17;38.97;;;17.80;99.90;;;;;;4390337;32;20596;-61
2021/06/27 04:01:12;;;;;;;53.40;37.77;;;17.80;99.90;;;;;;4384183;32;20269;-60
2021/06/27 04:03:40;;;;;;;54.60;40.70;;;17.90;99.90;;;;;;4389505;32;20164;-60
2021/06/27 04:06:07;;;;;;;51.33;39.90;;;17.90;99.90;;;;;;4393202;32;20172;-59
2021/06/27 04:08:35;;;;;;;52.23;38.53;;;18.00;99.90;;;;;;4387035;32;20211;-61
2021/06/27 04:11:03;;;;;;;53.67;39.33;;;18.10;99.90;;;;;;4391373;32;20164;-59
2021/06/27 04:13:31;;;;;;;53.33;38.43;;;18.20;99.90;;;;;;4388267;32;20195;-60
2021/06/27 04:15:59;;;;;;;50.07;37.17;;;18.20;99.90;;;;;;4390722;32;20203;-60
2021/06/27 04:18:27;;;;;;;54.87;37.90;;;18.30;99.90;;;;;;4389798;32;20223;-62
2021/06/27 04:20:54;;;;;;;47.60;37.40;;;18.40;99.90;;;;;;4386273;32;20160;-60
2021/06/27 04:23:21;;;;;;;47.20;37.33;;;18.40;99.90;;;;;;4391236;32;20152;-60
2021/06/27 04:25:48;;;;;;;48.17;36.30;;;18.50;99.90;;;;;;4386845;32;20213;-61
2021/06/27 04:28:17;;;;;;;48.50;38.27;;;18.60;99.90;;;;;;4380491;32;20222;-61
2021/06/27 04:30:44;;;;;;;49.83;36.77;;;18.70;99.90;;;;;;4384548;32;20600;-61
2021/06/27 04:33:12;;;;;;;47.57;36.97;;;18.80;99.90;;;;;;4376533;32;20152;-60
2021/06/27 04:35:40;;;;;;;48.10;36.47;;;18.80;99.90;;;;;;4377949;32;20164;-61
2021/06/27 04:38:09;;;;;;;47.63;36.63;;;18.90;99.90;;;;;;4386062;32;20159;-60
2021/06/27 04:40:37;;;;;;;48.47;37.07;;;18.90;99.90;;;;;;4383170;32;20183;-58
2021/06/27 04:43:04;;;;;;;46.60;35.33;;;18.90;99.90;;;;;;4379184;32;20157;-61
2021/06/27 04:45:32;;;;;;;46.33;34.57;;;19.00;99.90;;;;;;4385500;32;20161;-61
2021/06/27 04:48:00;;;;;;;51.30;39.37;;;19.10;99.90;;;;;;4390918;32;20152;-59
2021/06/27 04:50:27;;;;;;;49.13;36.33;;;19.30;99.90;;;;;;4390591;32;20194;-61
2021/06/27 04:52:54;;;;;;;44.20;35.33;;;19.30;99.90;;;;;;4390340;32;20203;-60
2021/06/27 04:55:21;;;;;;;46.53;34.13;;;19.50;99.90;;;;;;4379143;32;20165;-61
2021/06/27 04:57:48;;;;;;;42.03;33.90;;;19.70;99.90;;;;;;4379606;32;20198;-59
2021/06/27 05:00:16;;;;;;;45.10;34.13;;;19.90;99.90;;;;;;4376375;32;20265;-61
2021/06/27 05:02:44;;;;;;;43.43;33.10;;;20.10;99.90;;;;;;4381470;32;20195;-62
2021/06/27 05:05:13;;;;;;;42.37;33.90;;;20.20;99.90;;;;;;4391547;32;20171;-60
2021/06/27 05:07:40;;;;;;;43.97;34.37;;;20.20;99.90;;;;;;4383127;32;20180;-60
2021/06/27 05:10:08;;;;;;;41.17;33.47;;;20.00;99.90;;;;;;4389824;32;20176;-60
2021/06/27 05:12:35;;;;;;;46.07;35.23;;;19.90;99.90;;;;;;4390042;32;20223;-61
2021/06/27 05:15:02;;;;;;;39.50;30.53;;;19.90;99.90;;;;;;4375699;32;20208;-60
2021/06/27 05:17:29;;;;;;;41.37;31.60;;;20.00;99.90;;;;;;4375900;32;20179;-61
2021/06/27 05:19:57;;;;;;;38.73;31.83;;;20.10;99.90;;;;;;4374873;32;20189;-60
2021/06/27 05:22:24;;;;;;;40.60;31.97;;;20.10;99.90;;;;;;4376451;32;20176;-61
2021/06/27 05:24:51;;;;;;;42.07;31.73;;;20.20;99.90;;;;;;4377876;32;20164;-60
2021/06/27 05:27:18;;;;;;;41.83;30.93;;;20.20;99.90;;;;;;4375868;32;20182;-60
2021/06/27 05:29:44;;;;;;;40.97;31.50;;;20.20;99.90;;;;;;4378487;32;20194;-61
2021/06/27 05:32:11;;;;;;;39.63;31.40;;;20.20;99.90;;;;;;4377906;32;20194;-59
2021/06/27 05:34:38;;;;;;;39.33;30.47;;;20.20;99.90;;;;;;4377348;32;20183;-60
2021/06/27 05:37:06;;;;;;;36.83;30.60;;;20.30;99.90;;;;;;4387908;32;20174;-60
2021/06/27 05:39:33;;;;;;;36.57;29.10;;;20.40;99.90;;;;;;4375660;32;20175;-60
2021/06/27 05:42:00;;;;;;;38.23;31.47;;;20.40;99.90;;;;;;4379010;32;20160;-61
2021/06/27 05:44:27;;;;;;;37.40;29.23;;;20.40;99.90;;;;;;4387135;32;20160;-61
2021/06/27 05:46:54;;;;;;;38.13;29.03;;;20.40;99.90;;;;;;4390950;32;20572;-61
2021/06/27 05:49:21;;;;;;;34.73;28.90;;;20.40;99.90;;;;;;4388352;32;20171;-61
2021/06/27 05:51:48;;;;;;;37.03;30.27;;;20.40;99.90;;;;;;4390701;32;20152;-60
2021/06/27 05:54:16;;;;;;;36.20;27.77;;;20.40;99.90;;;;;;4381120;32;20164;-61
2021/06/27 05:56:43;;;;;;;33.57;27.77;;;20.50;99.90;;;;;;4384689;32;20201;-60
2021/06/27 05:59:09;;;;;;;35.67;28.33;;;20.60;99.90;;;;;;4389025;32;20191;-61
2021/06/27 06:01:36;;;;;;;34.33;28.27;;;20.60;99.90;;;;;;4375864;32;20160;-60
2021/06/27 06:04:03;;;;;;;37.67;29.87;;;20.70;99.90;;;;;;4375170;32;20156;-63
2021/06/27 06:06:30;;;;;;;35.23;27.53;;;20.80;99.90;;;;;;4379836;32;20220;-61
2021/06/27 06:08:57;;;;;;;35.60;27.93;;;21.00;99.90;;;;;;4380083;32;20206;-60
2021/06/27 06:11:26;;;;;;;33.17;27.60;;;21.20;99.90;;;;;;4379782;32;20208;-61
2021/06/27 06:13:53;;;;;;;35.97;29.83;;;21.20;99.90;;;;;;4381417;32;20172;-60
2021/06/27 06:16:20;;;;;;;39.37;29.73;;;21.10;99.90;;;;;;4380076;32;20156;-61
2021/06/27 06:18:47;;;;;;;34.60;27.73;;;21.10;99.90;;;;;;4381346;32;20198;-61
2021/06/27 06:21:15;;;;;;;33.80;27.43;;;20.90;99.90;;;;;;4385482;32;20164;-61
2021/06/27 06:23:42;;;;;;;34.23;27.47;;;20.90;99.90;;;;;;4384322;32;20176;-61
2021/06/27 06:26:11;;;;;;;37.77;28.67;;;20.90;99.90;;;;;;4385835;32;20599;-60
2021/06/27 06:28:40;;;;;;;35.63;28.20;;;20.90;99.90;;;;;;4384736;32;20152;-61
2021/06/27 06:31:07;;;;;;;31.80;26.63;;;20.90;99.90;;;;;;4383942;32;20168;-60
2021/06/27 06:33:34;;;;;;;32.97;26.43;;;20.80;99.90;;;;;;4384639;32;20156;-60
2021/06/27 06:36:01;;;;;;;35.80;28.80;;;20.90;99.90;;;;;;4384500;32;20183;-61
2021/06/27 06:38:30;;;;;;;33.23;27.47;;;20.90;99.90;;;;;;4381965;32;20190;-60
2021/06/27 06:40:57;;;;;;;33.10;27.80;;;21.00;99.90;;;;;;4383487;32;20252;-61
2021/06/27 06:43:24;;;;;;;30.63;26.13;;;21.00;99.90;;;;;;4385046;32;20224;-61
2021/06/27 06:45:52;;;;;;;32.67;27.03;;;21.10;99.90;;;;;;4380998;32;20223;-61
2021/06/27 06:48:19;;;;;;;30.67;24.40;;;21.20;99.90;;;;;;4380901;32;20156;-60
2021/06/27 06:50:46;;;;;;;33.60;26.73;;;21.20;99.90;;;;;;4384273;32;20754;-59
2021/06/27 06:53:13;;;;;;;31.93;26.30;;;21.30;99.90;;;;;;4384652;32;20182;-61
2021/06/27 06:55:40;;;;;;;34.47;27.50;;;21.40;99.90;;;;;;4382545;32;20176;-61
2021/06/27 06:58:06;;;;;;;29.50;23.70;;;21.50;99.90;;;;;;4383497;32;20197;-61
2021/06/27 07:00:34;;;;;;;32.33;24.80;;;21.80;99.90;;;;;;4384358;32;20179;-60
2021/06/27 07:03:02;;;;;;;30.13;23.70;;;22.20;99.90;;;;;;4383008;32;20179;-61
2021/06/27 07:05:28;;;;;;;30.23;25.23;;;22.30;99.90;;;;;;4381409;32;20604;-62
2021/06/27 07:07:55;;;;;;;30.87;25.07;;;22.50;99.90;;;;;;4384071;32;20184;-64
2021/06/27 07:10:22;;;;;;;27.27;22.83;;;22.60;99.90;;;;;;4382017;32;20164;-61
2021/06/27 07:12:49;;;;;;;29.87;25.30;;;23.00;99.90;;;;;;4383621;32;20213;-61
2021/06/27 07:15:16;;;;;;;24.83;21.37;;;23.00;99.90;;;;;;4383452;32;20230;-62
2021/06/27 07:17:47;;;;;;;28.40;22.70;;;23.10;99.90;;;;;;4381061;32;20212;-61
2021/06/27 07:20:15;;;;;;;28.60;23.33;;;23.00;99.90;;;;;;4378275;32;20160;-62
2021/06/27 07:22:42;;;;;;;25.53;21.20;;;23.30;99.90;;;;;;4380879;32;20597;-63
2021/06/27 07:25:10;;;;;;;25.77;22.00;;;23.50;99.90;;;;;;4382500;32;20584;-64
2021/06/27 07:27:38;;;;;;;25.93;22.00;;;23.70;99.90;;;;;;4385184;32;20509;-62
2021/06/27 07:30:07;;;;;;;23.57;20.23;;;23.90;99.80;;;;;;4388865;32;20223;-61
2021/06/27 07:32:33;;;;;;;24.33;21.73;;;24.30;99.70;;;;;;4383401;32;20179;-62
2021/06/27 07:35:00;;;;;;;24.27;20.20;;;24.60;99.10;;;;;;4383288;32;20178;-62
2021/06/27 07:37:28;;;;;;;25.20;21.17;;;24.60;98.20;;;;;;4378439;32;20195;-61
2021/06/27 07:39:55;;;;;;;22.50;20.13;;;24.60;98.20;;;;;;4391129;32;20510;-62
2021/06/27 07:42:22;;;;;;;26.02;21.85;;;24.80;98.00;;;;;;4380891;32;20209;-62
2021/06/27 07:44:49;;;;;;;22.70;20.20;;;25.00;97.20;;;;;;4381344;32;20198;-63
2021/06/27 07:47:16;;;;;;;24.23;20.70;;;25.00;97.00;;;;;;4382616;32;20636;-62
2021/06/27 07:49:45;;;;;;;23.98;20.90;;;25.20;96.80;;;;;;4393517;32;20183;-62
2021/06/27 07:52:12;;;;;;;23.00;20.60;;;25.20;96.50;;;;;;4379529;32;20231;-62
2021/06/27 07:54:40;;;;;;;26.52;18.95;;;25.40;96.00;;;;;;4380506;32;20901;-61
2021/06/27 07:57:09;;;;;;;21.35;19.05;;;25.70;95.90;;;;;;4382233;32;20196;-62
2021/06/27 07:59:36;;;;;;;21.40;18.83;;;26.50;95.00;;;;;;4383606;32;20156;-61
2021/06/27 08:02:02;;;;;;;20.75;17.23;;;27.20;94.00;;;;;;4382948;32;20187;-61
2021/06/27 08:04:29;;;;;;;20.10;18.00;;;27.60;93.60;;;;;;4380949;32;22040;-62
2021/06/27 08:06:56;;;;;;;20.58;17.37;;;28.10;92.20;;;;;;4381895;32;20168;-60
2021/06/27 08:09:23;;;;;;;20.12;18.02;;;28.90;91.20;;;;;;4382172;32;20186;-61
2021/06/27 08:11:52;;;;;;;18.80;16.23;;;29.30;90.00;;;;;;4379731;32;20238;-62
2021/06/27 08:14:19;;;;;;;19.15;15.63;;;30.50;88.60;;;;;;4383167;32;20152;-60
2021/06/27 08:16:46;;;;;;;17.15;15.35;;;31.50;84.50;;;;;;4382002;32;20156;-62
2021/06/27 08:19:15;;;;;;;20.98;17.75;;;32.30;82.10;;;;;;4382396;32;20262;-62
2021/06/27 08:21:42;;;;;;;17.77;14.57;;;32.20;78.10;;;;;;4381346;32;20612;-60
2021/06/27 08:24:09;;;;;;;18.35;13.85;;;32.30;78.30;;;;;;4379773;32;20160;-60
2021/06/27 08:26:36;;;;;;;17.95;16.15;;;32.70;77.50;;;;;;4379683;32;20584;-61
2021/06/27 08:29:07;;;;;;;16.92;15.15;;;32.80;74.40;;;;;;4380568;32;20161;-60
2021/06/27 08:31:34;;;;;;;18.55;15.32;;;33.00;74.00;;;;;;4376439;32;20165;-62
2021/06/27 08:34:01;;;;;;;15.57;13.80;;;33.50;73.50;;;;;;4379408;32;20219;-62
2021/06/27 08:36:29;;;;;;;17.33;15.48;;;34.50;71.10;;;;;;4381161;32;20232;-62
2021/06/27 08:38:56;;;;;;;15.70;14.25;;;35.30;66.80;;;;;;4382004;32;20175;-62
2021/06/27 08:41:23;;;;;;;15.02;13.45;;;35.70;65.00;;;;;;4378687;32;20164;-62
2021/06/27 08:43:50;;;;;;;15.80;14.18;;;36.20;62.90;;;;;;4382768;32;20160;-60
2021/06/27 08:46:21;;;;;;;17.23;13.75;;;36.70;61.80;;;;;;4382196;32;20198;-62
2021/06/27 08:48:48;;;;;;;14.35;12.85;;;36.50;61.70;;;;;;4382803;32;20214;-61
2021/06/27 08:51:15;;;;;;;13.50;12.10;;;36.60;59.30;;;;;;4381571;32;20148;-62
2021/06/27 08:53:43;;;;;;;17.62;15.13;;;36.70;59.50;;;;;;4380718;32;20152;-62
2021/06/27 08:56:11;;;;;;;16.45;14.38;;;37.20;58.40;;;;;;4380761;32;20216;-62
2021/06/27 08:58:40;;;;;;;17.85;16.08;;;37.80;56.70;;;;;;4380498;32;20597;-61
2021/06/27 09:01:11;;;;;;;16.95;15.25;;;38.40;55.40;;;;;;4378406;32;21838;-64
2021/06/27 09:03:39;;;;;;;17.17;15.57;;;38.80;54.10;;;;;;4380517;32;20164;-62
2021/06/27 09:06:06;;;;;;;13.57;12.20;;;39.50;54.10;;;;;;4377097;32;20534;-62
2021/06/27 09:08:33;;;;;;;13.65;12.45;;;41.10;52.40;;;;;;4378783;32;20179;-62
2021/06/27 09:11:14;;;;;;;14.70;13.10;;;43.40;49.60;;;;;;4379573;32;20479;-60
2021/06/27 09:13:43;;;;;;;14.95;13.62;;;45.60;44.80;;;;;;4379627;32;20696;-61
2021/06/27 09:16:22;;;;;;;15.02;13.55;;;47.10;42.80;;;;;;4382365;32;20151;-61
2021/06/27 09:18:51;;;;;;;15.73;14.25;;;49.00;39.00;;;;;;4375754;32;20219;-61
2021/06/27 09:21:18;;;;;;;11.27;10.20;;;50.00;37.80;;;;;;4384780;32;20220;-62
2021/06/27 09:23:48;;;;;;;13.82;12.50;;;51.10;36.10;;;;;;4385934;32;20157;-60
2021/06/27 09:26:27;;;;;;;13.18;11.95;;;51.80;35.10;;;;;;4378342;32;20175;-61
2021/06/27 09:28:55;;;;;;;12.25;11.25;;;52.20;34.10;;;;;;4381265;32;20187;-60
2021/06/27 09:31:40;;;;;;;13.60;12.30;;;51.90;33.60;;;;;;4379312;32;20161;-61
2021/06/27 09:34:10;;;;;;;14.07;12.63;;;52.60;33.70;;;;;;4372758;32;20253;-61
2021/06/27 09:36:40;;;;;;;15.60;11.95;;;52.90;32.50;;;;;;4375128;32;20251;-61
2021/06/27 09:39:12;;;;;;;14.60;13.20;;;52.70;32.40;;;;;;4380591;32;20601;-62
2021/06/27 09:41:51;;;;;;;15.90;14.48;;;52.10;32.00;;;;;;4375984;32;20205;-62
2021/06/27 09:44:19;;;;;;;14.20;12.90;;;51.50;33.40;;;;;;4372477;32;20224;-60
2021/06/27 09:46:52;;;;;;;11.63;10.65;;;51.20;33.40;;;;;;4378260;32;20164;-62
2021/06/27 09:49:31;;;;;;;13.45;12.15;;;51.00;32.60;;;;;;4382121;32;20243;-61
2021/06/27 09:52:02;;;;;;;17.75;15.60;;;50.60;32.90;;;;;;4377794;32;20235;-62
2021/06/27 09:54:28;;;;;;;16.37;14.93;;;49.10;33.70;;;;;;4386008;32;20206;-61
2021/06/27 09:56:57;;;;;;;14.73;13.38;;;47.80;34.50;;;;;;4380350;32;20296;-64
2021/06/27 09:59:34;;;;;;;16.42;14.55;;;44.40;37.20;;;;;;4389253;32;20156;-63
2021/06/27 10:02:01;;;;;;;12.98;11.70;;;40.40;40.30;;;;;;4387753;32;20499;-63
2021/06/27 10:04:31;;;;;;;13.52;12.32;;;37.60;43.50;;;;;;4392610;32;20190;-63
2021/06/27 10:07:02;;;;;;;13.57;12.18;;;35.50;46.90;;;;;;4385399;32;20168;-62
2021/06/27 10:09:31;;;;;;;14.65;13.27;;;34.50;48.80;;;;;;4385864;32;20156;-62
2021/06/27 10:12:03;;;;;;;15.68;14.13;;;33.60;49.20;;;;;;4384373;32;20172;-61
2021/06/27 10:14:33;;;;;;;14.57;13.10;;;33.00;49.40;;;;;;4383822;32;20630;-61
2021/06/27 10:17:01;;;;;;;15.18;13.18;;;32.60;51.40;;;;;;4387252;32;20248;-62
2021/06/27 10:19:31;;;;;;;12.75;11.43;;;31.90;52.80;;;;;;4382396;32;20164;-62
2021/06/27 10:22:02;;;;;;;12.43;11.15;;;31.50;51.90;;;;;;4387478;32;20175;-62
2021/06/27 10:24:31;;;;;;;13.68;12.18;;;31.20;54.40;;;;;;4382549;32;20210;-63
2021/06/27 10:26:58;;;;;;;12.95;11.52;;;31.10;54.10;;;;;;4386225;32;20186;-61
2021/06/27 10:29:25;;;;;;;9.88;8.85;;;30.90;57.50;;;;;;4383091;32;20186;-61
2021/06/27 10:31:54;;;;;;;10.70;9.40;;;30.80;54.60;;;;;;4377346;32;20195;-62
2021/06/27 10:34:22;;;;;;;9.27;8.48;;;30.60;53.70;;;;;;4385707;32;21578;-61
2021/06/27 10:36:53;;;;;;;9.20;8.40;;;30.40;54.00;;;;;;4384252;32;20184;-60
2021/06/27 10:39:20;;;;;;;11.12;10.02;;;30.40;54.70;;;;;;4384846;32;20160;-61
2021/06/27 10:41:49;;;;;;;9.15;8.20;;;30.30;56.30;;;;;;4382596;32;20153;-62
2021/06/27 10:44:16;;;;;;;8.90;8.10;;;30.20;55.50;;;;;;4381744;32;20185;-60
2021/06/27 10:46:45;;;;;;;11.23;10.07;;;30.30;56.10;;;;;;4381921;32;20171;-60
2021/06/27 10:49:55;;;;;;;10.05;9.00;;;30.60;55.30;;;;;;4384402;32;20176;-61
2021/06/27 10:52:24;;;;;;;9.43;8.63;;;30.60;54.50;;;;;;4341739;33;20177;-62
2021/06/27 10:55:22;;;;;;;10.07;9.07;;;30.40;56.40;;;;;;4343329;33;20683;-62
2021/06/27 10:57:57;;;;;;;8.65;7.80;;;30.30;58.20;;;;;;4341548;33;20203;-61
2021/06/27 11:00:26;;;;;;;8.68;7.95;;;30.20;56.20;;;;;;4337207;33;20312;-61
2021/06/27 11:02:53;;;;;;;11.73;10.52;;;30.30;56.90;;;;;;4332845;33;20173;-64
2021/06/27 11:05:46;;;;;;;11.02;9.98;;;30.40;55.60;;;;;;4338821;33;20267;-60
2021/06/27 11:08:30;;;;;;;10.35;9.45;;;30.10;57.60;;;;;;4339734;33;20164;-62
2021/06/27 11:11:02;;;;;;;11.23;10.00;;;30.20;58.60;;;;;;4340773;33;20160;-61
2021/06/27 11:13:30;;;;;;;10.50;9.50;;;30.20;57.20;;;;;;4337459;33;20161;-61
2021/06/27 11:16:09;;;;;;;9.65;8.70;;;30.40;58.10;;;;;;4345169;32;20625;-60
2021/06/27 11:18:40;;;;;;;10.13;9.13;;;30.40;56.50;;;;;;4339046;33;20279;-60
2021/06/27 11:21:29;;;;;;;11.68;10.55;;;30.50;57.10;;;;;;4339127;33;20256;-60
2021/06/27 11:24:00;;;;;;;10.68;9.68;;;30.60;58.20;;;;;;4341751;32;20160;-62
2021/06/27 11:27:00;;;;;;;10.85;9.75;;;30.20;57.80;;;;;;4347335;33;20243;-61
2021/06/27 11:29:43;;;;;;;10.32;9.23;;;29.80;57.40;;;;;;4347042;33;20177;-61
2021/06/27 11:34:52;;;;;;;9.82;8.90;;;30.30;58.20;;;;;;4377435;32;20554;-61
2021/06/27 11:37:44;;;;;;;9.40;8.70;;;30.30;57.90;;;;;;4377984;32;20178;-62
2021/06/27 11:40:13;;;;;;;10.40;9.43;;;30.10;58.30;;;;;;4380781;32;20281;-63
2021/06/27 11:42:48;;;;;;;9.05;8.25;;;30.20;57.20;;;;;;4381886;32;20166;-63
2021/06/27 11:45:41;;;;;;;10.23;9.27;;;30.20;56.90;;;;;;4382614;32;20159;-60
2021/06/27 11:48:09;;;;;;;9.07;8.20;;;29.90;57.70;;;;;;4379150;32;20171;-62
2021/06/27 11:50:38;;;;;;;12.73;9.05;;;29.80;59.20;;;;;;4378699;32;20493;-60
2021/06/27 11:53:07;;;;;;;9.93;8.93;;;30.00;57.40;;;;;;4382049;32;20171;-60
2021/06/27 11:55:36;;;;;;;9.23;8.30;;;29.90;57.40;;;;;;4383333;32;20164;-59
2021/06/27 11:58:05;;;;;;;8.43;7.72;;;29.60;57.10;;;;;;4384030;32;20198;-60
2021/06/27 12:00:35;;;;;;;8.57;7.75;;;29.60;58.00;;;;;;4385959;32;20196;-60
2021/06/27 12:03:06;;;;;;;9.07;7.07;;;29.50;57.80;;;;;;4384848;32;20219;-59
2021/06/27 12:05:33;;;;;;;9.32;8.40;;;29.30;58.50;;;;;;4381816;32;20685;-62
2021/06/27 12:08:05;;;;;;;7.03;6.40;;;29.40;58.50;;;;;;4376261;32;20255;-60
2021/06/27 12:10:32;;;;;;;6.82;6.12;;;29.30;57.20;;;;;;4386282;32;20165;-60
2021/06/27 12:13:02;;;;;;;6.85;6.18;;;29.40;56.70;;;;;;4386710;32;20247;-60
2021/06/27 12:15:35;;;;;;;7.28;6.43;;;29.40;57.10;;;;;;4380852;32;20662;-64
2021/06/27 12:18:05;;;;;;;7.03;6.43;;;29.50;56.70;;;;;;4382758;32;20167;-62
2021/06/27 12:20:34;;;;;;;7.18;6.57;;;29.50;56.30;;;;;;4384925;32;20494;-61
2021/06/27 12:23:04;;;;;;;7.00;6.15;;;29.50;56.70;;;;;;4379520;32;20208;-60
2021/06/27 12:25:33;;;;;;;7.43;6.12;;;29.30;54.70;;;;;;4377933;32;20699;-60
2021/06/27 12:28:03;;;;;;;7.87;6.10;;;29.30;55.80;;;;;;4384264;32;20190;-61
2021/06/27 12:30:46;;;;;;;7.03;6.43;;;29.40;56.80;;;;;;4384422;32;20190;-60
2021/06/27 12:33:14;;;;;;;7.60;6.72;;;29.40;57.00;;;;;;4380074;32;20600;-61
2021/06/27 12:35:43;;;;;;;7.57;6.90;;;29.60;56.70;;;;;;4387803;32;20211;-61
2021/06/27 12:38:11;;;;;;;7.72;6.90;;;29.70;56.50;;;;;;4390752;32;20151;-62
2021/06/27 12:40:45;;;;;;;7.20;6.47;;;29.70;57.70;;;;;;4380202;32;20164;-62
2021/06/27 12:43:29;;;;;;;8.00;7.30;;;29.70;57.70;;;;;;4385089;32;20588;-60